sensor_id;sensor_type;location;lat;lon;timestamp;temperature;humidity
18171;DHT22;9210;48.358;10.902;2023-01-29T10:12:07;1.20;99.90
18171;DHT22;9210;48.358;10.902;2023-01-29T10:14:44;1.30;99.90
18171;DHT22;9210;48.358;10.902;2023-01-29T10:17:29;1.40;99.90
18171;DHT22;9210;48.358;10.902;2023-01-29T10:20:12;1.30;99.90
18171;DHT22;9210;48.358;10.902;2023-01-29T10:23:00;1.20;99.90
18171;DHT22;9210;48.358;10.902;2023-01-29T10:25:32;1.40;99.90
18171;DHT22;9210;48.358;10.902;2023-01-29T10:28:15;1.50;99.90
18171;DHT22;9210;48.358;10.902;2023-01-29T10:38:28;1.40;99.90
18171;DHT22;9210;48.358;10.902;2023-01-29T10:41:05;1.20;99.90
18171;DHT22;9210;48.358;10.902;2023-01-29T10:43:50;1.30;99.90
18171;DHT22;9210;48.358;10.902;2023-01-29T10:46:27;1.30;99.90
18171;DHT22;9210;48.358;10.902;2023-01-29T10:49:04;1.50;99.90
18171;DHT22;9210;48.358;10.902;2023-01-29T10:51:48;1.60;99.90
18171;DHT22;9210;48.358;10.902;2023-01-29T10:54:34;1.40;99.90
18171;DHT22;9210;48.358;10.902;2023-01-29T10:57:11;1.70;99.90
18171;DHT22;9210;48.358;10.902;2023-01-29T11:17:25;1.60;99.90
18171;DHT22;9210;48.358;10.902;2023-01-29T11:19:54;1.40;99.90
18171;DHT22;9210;48.358;10.902;2023-01-29T11:22:23;1.50;99.90
18171;DHT22;9210;48.358;10.902;2023-01-29T15:51:46;1.70;99.90
18171;DHT22;9210;48.358;10.902;2023-01-29T15:54:16;1.20;99.90
18171;DHT22;9210;48.358;10.902;2023-01-29T15:56:47;1.20;99.90
18171;DHT22;9210;48.358;10.902;2023-01-29T15:59:18;1.10;99.90
18171;DHT22;9210;48.358;10.902;2023-01-29T16:01:48;0.90;99.90
18171;DHT22;9210;48.358;10.902;2023-01-29T16:04:19;0.80;99.90
18171;DHT22;9210;48.358;10.902;2023-01-29T16:06:50;1.00;99.90
18171;DHT22;9210;48.358;10.902;2023-01-29T16:09:22;0.90;99.90
18171;DHT22;9210;48.358;10.902;2023-01-29T16:11:55;1.10;99.90
18171;DHT22;9210;48.358;10.902;2023-01-29T16:14:25;1.10;99.90
18171;DHT22;9210;48.358;10.902;2023-01-29T16:16:55;1.20;99.90
18171;DHT22;9210;48.358;10.902;2023-01-29T16:19:25;1.10;99.90
18171;DHT22;9210;48.358;10.902;2023-01-29T16:21:57;1.00;99.90
18171;DHT22;9210;48.358;10.902;2023-01-29T16:24:28;1.00;99.90
18171;DHT22;9210;48.358;10.902;2023-01-29T16:26:59;1.00;99.90
18171;DHT22;9210;48.358;10.902;2023-01-29T16:29:30;0.90;99.90
18171;DHT22;9210;48.358;10.902;2023-01-29T16:32:08;1.20;99.90
18171;DHT22;9210;48.358;10.902;2023-01-29T16:34:41;1.10;99.90
18171;DHT22;9210;48.358;10.902;2023-01-29T16:37:18;1.00;99.90
18171;DHT22;9210;48.358;10.902;2023-01-29T16:39:50;1.10;99.90
18171;DHT22;9210;48.358;10.902;2023-01-29T16:42:24;1.00;99.90
18171;DHT22;9210;48.358;10.902;2023-01-29T16:44:57;1.10;99.90
18171;DHT22;9210;48.358;10.902;2023-01-29T16:47:32;1.10;99.90
18171;DHT22;9210;48.358;10.902;2023-01-29T16:50:02;0.90;99.90
18171;DHT22;9210;48.358;10.902;2023-01-29T16:52:32;0.60;99.90
18171;DHT22;9210;48.358;10.902;2023-01-29T16:57:46;0.90;99.90
18171;DHT22;9210;48.358;10.902;2023-01-29T17:00:20;1.10;99.90
18171;DHT22;9210;48.358;10.902;2023-01-29T17:02:51;1.10;99.90
18171;DHT22;9210;48.358;10.902;2023-01-29T17:05:25;1.10;99.90
18171;DHT22;9210;48.358;10.902;2023-01-29T17:07:55;1.00;99.90
18171;DHT22;9210;48.358;10.902;2023-01-29T17:10:27;0.70;99.90
18171;DHT22;9210;48.358;10.902;2023-01-29T17:12:58;0.80;99.90
18171;DHT22;9210;48.358;10.902;2023-01-29T17:15:34;1.10;99.90
18171;DHT22;9210;48.358;10.902;2023-01-29T17:18:03;1.20;99.90
18171;DHT22;9210;48.358;10.902;2023-01-29T17:20:38;1.00;99.90
18171;DHT22;9210;48.358;10.902;2023-01-29T17:23:06;0.90;99.90
18171;DHT22;9210;48.358;10.902;2023-01-29T17:25:36;1.10;99.90
18171;DHT22;9210;48.358;10.902;2023-01-29T17:28:05;0.80;99.90
18171;DHT22;9210;48.358;10.902;2023-01-29T17:30:34;0.80;99.90
18171;DHT22;9210;48.358;10.902;2023-01-29T17:33:11;1.00;99.90
18171;DHT22;9210;48.358;10.902;2023-01-29T17:35:41;0.70;99.90
18171;DHT22;9210;48.358;10.902;2023-01-29T17:38:11;0.60;99.90
18171;DHT22;9210;48.358;10.902;2023-01-29T17:40:58;0.90;99.90
18171;DHT22;9210;48.358;10.902;2023-01-29T17:43:32;0.80;99.90
18171;DHT22;9210;48.358;10.902;2023-01-29T17:46:02;1.00;99.90
18171;DHT22;9210;48.358;10.902;2023-01-29T17:48:34;0.70;99.90
18171;DHT22;9210;48.358;10.902;2023-01-29T17:51:16;0.70;99.90
18171;DHT22;9210;48.358;10.902;2023-01-29T17:53:46;1.10;99.90
18171;DHT22;9210;48.358;10.902;2023-01-29T17:56:17;1.10;99.90
18171;DHT22;9210;48.358;10.902;2023-01-29T17:58:46;0.80;99.90
18171;DHT22;9210;48.358;10.902;2023-01-29T18:01:17;0.90;99.90
18171;DHT22;9210;48.358;10.902;2023-01-29T18:03:46;0.60;99.90
18171;DHT22;9210;48.358;10.902;2023-01-29T18:06:27;0.90;99.90
18171;DHT22;9210;48.358;10.902;2023-01-29T18:08:55;1.00;99.90
18171;DHT22;9210;48.358;10.902;2023-01-29T18:11:25;0.70;99.90
18171;DHT22;9210;48.358;10.902;2023-01-29T18:13:54;0.90;99.90
18171;DHT22;9210;48.358;10.902;2023-01-29T18:16:22;0.80;99.90
18171;DHT22;9210;48.358;10.902;2023-01-29T18:18:51;0.90;99.90
18171;DHT22;9210;48.358;10.902;2023-01-29T18:21:19;0.90;99.90
18171;DHT22;9210;48.358;10.902;2023-01-29T18:23:48;1.00;99.90
18171;DHT22;9210;48.358;10.902;2023-01-29T18:26:16;1.00;99.90
18171;DHT22;9210;48.358;10.902;2023-01-29T18:28:46;1.00;99.90
18171;DHT22;9210;48.358;10.902;2023-01-29T18:31:14;0.80;99.90
18171;DHT22;9210;48.358;10.902;2023-01-29T18:33:44;0.90;99.90
18171;DHT22;9210;48.358;10.902;2023-01-29T18:36:13;0.90;99.90
18171;DHT22;9210;48.358;10.902;2023-01-29T18:38:42;1.10;99.90
18171;DHT22;9210;48.358;10.902;2023-01-29T18:41:11;0.90;99.90
18171;DHT22;9210;48.358;10.902;2023-01-29T18:43:41;0.90;99.90
18171;DHT22;9210;48.358;10.902;2023-01-29T18:46:11;0.70;99.90
18171;DHT22;9210;48.358;10.902;2023-01-29T18:48:39;0.90;99.90
18171;DHT22;9210;48.358;10.902;2023-01-29T18:51:09;0.80;99.90
18171;DHT22;9210;48.358;10.902;2023-01-29T18:53:37;0.60;99.90
18171;DHT22;9210;48.358;10.902;2023-01-29T18:56:05;0.80;99.90
18171;DHT22;9210;48.358;10.902;2023-01-29T18:58:35;0.60;99.90
18171;DHT22;9210;48.358;10.902;2023-01-29T19:01:06;0.50;99.90
18171;DHT22;9210;48.358;10.902;2023-01-29T19:03:39;0.60;99.90
